Startpagina
METAR-TAF:

METAR-TAF

Vliegvelden :

Vliegbasis Kleine-Brogel

Peer, België

breedte: 51-10N, lengte: 005-28E, hoogte: 55 m

Actueel weer

Dit bericht is 34 minuten geleden gemaakt, om 21:25 UTC
Wind 6 kt uit het oosten
Temperatuur 6°C
Vochtigheid 75%
Druk 1028 hPa
Zicht 10 km of meer

METAR: EBBL 162125Z AUTO 09006KT 9999 NCD 06/02 Q1028 BLU

Tijdstip: 22:59 (21:59 UTC)


TAF: ontbreekt

Waarnemingen en weersverwachtingen van meer dan 4000 vliegvelden (METAR en TAF).

De beschikbare stations zijn de gele en rode punten op de kaart.

Ga met uw muis naar het station om de naam te zien.

Klik dan om waarnemingen en weersverwachtingen te zien.

kaart wijzigen: klik op de groene knoppen met een zwart kruis om in te zoomen, op de groene knop met een streepje om uit te zoomen of op de groene pijlen voor aangrenzende kaarten.


METAR-TAF: